Time;durP1;ratioP1;P1;durP2;ratioP2;P2;SDS_P1;SDS_P2;PMS_P1;PMS_P2;Temp;Humidity;BMP_temperature;BMP_pressure;BME280_temperature;BME280_humidity;BME280_pressure;Samples;Min_cycle;Max_cycle;Signal;HPM_P1;HPM_P2
2023/07/30 00:04:41;;;;;;;4.20;3.80;;;;;;;19.04;78.72;99586.48;221851;1236;60429;-73
2023/07/30 00:09:32;;;;;;;7.50;5.20;;;;;;;19.00;79.01;99595.20;221681;1232;60487;-73
2023/07/30 00:14:24;;;;;;;6.60;4.70;;;;;;;18.97;78.95;99604.12;221971;1235;60434;-73
2023/07/30 00:19:15;;;;;;;7.40;4.60;;;;;;;18.93;79.02;99608.27;221896;1236;67663;-73
2023/07/30 00:24:06;;;;;;;6.30;3.90;;;;;;;18.94;79.23;99611.24;221809;1232;60567;-73
2023/07/30 00:28:58;;;;;;;4.50;4.00;;;;;;;18.91;79.19;99617.15;221931;1232;60468;-73
2023/07/30 00:33:49;;;;;;;4.10;3.70;;;;;;;18.87;79.39;99623.61;221961;1232;60520;-73
2023/07/30 00:38:41;;;;;;;4.80;4.30;;;;;;;18.84;79.31;99627.38;221813;1235;60395;-73
2023/07/30 00:43:33;;;;;;;4.40;3.70;;;;;;;18.80;79.34;99629.59;221775;1232;60490;-73
2023/07/30 00:48:25;;;;;;;3.90;3.60;;;;;;;18.77;79.37;99624.80;221953;1231;60528;-73
2023/07/30 00:53:18;;;;;;;5.40;3.80;;;;;;;18.73;79.54;99631.77;221849;1234;72245;-73
2023/07/30 00:58:10;;;;;;;4.00;3.60;;;;;;;18.72;79.69;99630.92;221729;1231;60594;-73
2023/07/30 01:03:04;;;;;;;5.50;4.70;;;;;;;18.73;79.86;99633.02;221846;1232;65736;-73
2023/07/30 01:07:55;;;;;;;4.50;3.60;;;;;;;18.73;79.89;99642.49;221721;1232;60547;-73
2023/07/30 01:12:48;;;;;;;4.30;3.30;;;;;;;18.71;79.92;99647.30;221888;1235;60433;-73
2023/07/30 01:17:40;;;;;;;3.40;3.00;;;;;;;18.68;79.88;99647.02;221677;1232;60419;-73
2023/07/30 01:22:32;;;;;;;5.80;3.10;;;;;;;18.64;80.01;99640.65;221816;1232;60502;-73
2023/07/30 01:27:28;;;;;;;4.40;3.10;;;;;;;18.61;80.10;99643.40;221774;1232;60850;-73
2023/07/30 01:32:25;;;;;;;6.20;3.70;;;;;;;18.53;79.97;99652.06;221801;1232;74610;-73
2023/07/30 01:37:18;;;;;;;4.80;3.00;;;;;;;18.47;80.12;99654.04;221778;1232;72607;-73
2023/07/30 01:42:12;;;;;;;4.50;3.30;;;;;;;18.43;80.35;99656.45;221743;1235;60435;-73
2023/07/30 01:47:04;;;;;;;4.80;3.30;;;;;;;18.41;80.41;99662.48;221885;1232;66751;-73
2023/07/30 01:51:55;;;;;;;3.80;3.50;;;;;;;18.40;80.64;99653.02;221679;1237;60436;-73
2023/07/30 01:56:46;;;;;;;4.20;3.60;;;;;;;18.39;80.58;99653.77;221817;1232;60531;-73
2023/07/30 02:01:38;;;;;;;5.20;3.40;;;;;;;18.36;80.69;99657.89;221684;1232;60538;-73
2023/07/30 02:06:29;;;;;;;3.50;3.30;;;;;;;18.33;80.72;99665.52;221766;1232;60429;-73
2023/07/30 02:11:21;;;;;;;4.00;3.60;;;;;;;18.32;80.88;99665.21;221683;1236;60458;-73
2023/07/30 02:16:12;;;;;;;4.20;3.50;;;;;;;18.31;80.98;99662.61;221668;1232;74303;-72
2023/07/30 02:21:04;;;;;;;3.30;2.90;;;;;;;18.28;80.96;99659.69;221831;1232;60519;-74
2023/07/30 02:25:56;;;;;;;4.40;3.00;;;;;;;18.24;80.93;99661.06;221637;1235;60485;-73
2023/07/30 02:30:48;;;;;;;3.50;3.00;;;;;;;18.21;80.97;99666.95;221793;1232;72420;-73
2023/07/30 02:35:39;;;;;;;3.10;2.80;;;;;;;18.18;81.13;99672.84;221807;1232;60561;-73
2023/07/30 02:40:31;;;;;;;4.60;3.30;;;;;;;18.16;81.15;99678.52;221857;1236;60394;-72
2023/07/30 02:45:23;;;;;;;4.70;3.40;;;;;;;18.13;81.27;99680.87;221744;1232;60436;-73
2023/07/30 02:50:14;;;;;;;4.00;3.50;;;;;;;18.13;81.25;99688.27;221671;1232;60452;-73
2023/07/30 02:55:06;;;;;;;3.60;3.30;;;;;;;18.11;81.39;99687.08;221867;1232;61009;-73
2023/07/30 02:59:58;;;;;;;4.40;3.20;;;;;;;18.09;81.40;99684.34;221838;1232;64565;-73
2023/07/30 03:04:50;;;;;;;3.90;3.30;;;;;;;18.07;81.57;99680.02;221662;1232;60604;-72
2023/07/30 03:09:41;;;;;;;4.90;3.40;;;;;;;18.04;81.59;99679.94;221806;1232;60566;-73
2023/07/30 03:14:33;;;;;;;4.60;3.60;;;;;;;18.04;81.74;99678.36;221794;1232;60452;-73
2023/07/30 03:19:24;;;;;;;5.10;3.60;;;;;;;18.04;81.84;99679.92;221749;1234;60895;-73
2023/07/30 03:24:15;;;;;;;5.60;4.10;;;;;;;18.07;81.95;99685.45;221712;1232;60465;-72
2023/07/30 03:29:13;;;;;;;6.10;4.40;;;;;;;18.07;82.03;99686.33;221546;1236;71701;-73
2023/07/30 03:34:05;;;;;;;4.80;4.40;;;;;;;18.08;82.14;99691.02;221734;1236;71362;-72
2023/07/30 03:38:56;;;;;;;7.10;4.80;;;;;;;18.09;82.43;99697.66;221879;1235;60485;-72
2023/07/30 03:43:48;;;;;;;6.30;4.50;;;;;;;18.13;82.50;99702.46;221739;1232;60519;-72
2023/07/30 03:48:40;;;;;;;5.00;4.50;;;;;;;18.16;82.65;99697.62;221677;1232;60449;-72
2023/07/30 03:53:31;;;;;;;6.20;5.60;;;;;;;18.21;82.69;99698.16;221592;1232;60461;-72
2023/07/30 03:58:22;;;;;;;5.30;4.90;;;;;;;18.26;82.74;99702.02;221878;1232;60631;-73
2023/07/30 04:03:15;;;;;;;7.20;5.10;;;;;;;18.33;82.83;99710.08;221791;1232;65519;-72
2023/07/30 04:08:06;;;;;;;6.90;6.30;;;;;;;18.38;82.85;99707.47;221647;1232;60432;-72
2023/07/30 04:12:58;;;;;;;6.70;6.10;;;;;;;18.44;82.95;99706.77;221871;1232;60497;-72
2023/07/30 04:17:50;;;;;;;6.80;6.10;;;;;;;18.49;82.83;99710.47;221560;1235;60513;-72
2023/07/30 04:22:42;;;;;;;6.50;5.90;;;;;;;18.55;83.02;99718.02;221742;1235;60535;-72
2023/07/30 04:27:34;;;;;;;6.80;6.10;;;;;;;18.58;83.04;99721.23;221753;1232;60522;-73
2023/07/30 04:32:26;;;;;;;8.20;6.30;;;;;;;18.70;82.73;99728.77;221798;1234;73520;-73
2023/07/30 04:37:18;;;;;;;8.10;6.30;;;;;;;18.82;82.74;99733.14;221394;1232;60488;-73
2023/07/30 04:42:22;;;;;;;7.20;6.60;;;;;;;18.86;82.68;99747.56;221810;1232;60483;-74
2023/07/30 04:47:13;;;;;;;6.40;5.90;;;;;;;18.93;82.62;99756.82;221563;1232;72733;-72
2023/07/30 04:52:05;;;;;;;7.40;6.60;;;;;;;18.91;82.47;99763.03;221780;1234;60426;-73
2023/07/30 04:56:57;;;;;;;6.80;6.30;;;;;;;18.90;82.46;99773.07;221495;1234;182977;-72
2023/07/30 05:01:49;;;;;;;6.40;5.60;;;;;;;18.87;82.42;99773.52;221763;1232;61170;-73
2023/07/30 05:06:40;;;;;;;6.80;5.90;;;;;;;18.90;82.33;99776.96;221488;1234;60875;-72
2023/07/30 05:11:32;;;;;;;6.50;5.80;;;;;;;18.92;82.35;99781.45;221888;1231;60555;-72
2023/07/30 05:16:23;;;;;;;5.20;4.70;;;;;;;18.93;82.31;99791.41;221831;1232;66401;-73
2023/07/30 05:21:15;;;;;;;5.10;4.20;;;;;;;18.96;82.01;99798.16;221806;1232;60434;-72
2023/07/30 05:26:06;;;;;;;6.60;4.20;;;;;;;18.96;81.67;99802.05;221849;1235;60538;-72
2023/07/30 05:30:58;;;;;;;4.30;3.90;;;;;;;18.91;81.43;99809.05;221785;1232;60409;-73
2023/07/30 05:35:50;;;;;;;5.50;4.00;;;;;;;18.86;81.50;99809.89;221823;1232;60435;-73
2023/07/30 05:40:42;;;;;;;5.00;4.50;;;;;;;18.93;81.54;99817.08;221785;1232;60552;-73
2023/07/30 05:45:34;;;;;;;4.20;3.80;;;;;;;19.05;81.48;99826.16;221841;1234;60481;-72
2023/07/30 05:50:26;;;;;;;7.60;5.10;;;;;;;19.26;81.04;99834.09;221813;1232;71669;-72
2023/07/30 05:55:17;;;;;;;6.00;5.60;;;;;;;19.24;80.06;99838.19;221843;1235;60426;-73
2023/07/30 06:00:09;;;;;;;5.90;5.50;;;;;;;19.32;79.65;99841.46;221902;1232;60461;-73
2023/07/30 06:05:04;;;;;;;5.80;5.30;;;;;;;19.39;79.12;99844.55;221710;1236;60410;-72
2023/07/30 06:09:56;;;;;;;4.80;4.40;;;;;;;19.46;77.81;99840.64;221835;1232;60603;-73
2023/07/30 06:14:47;;;;;;;5.80;5.30;;;;;;;19.56;77.75;99848.73;221908;1232;60426;-73
2023/07/30 06:19:39;;;;;;;4.70;4.40;;;;;;;19.75;77.45;99845.80;221778;1234;66117;-73
2023/07/30 06:24:31;;;;;;;5.10;4.60;;;;;;;20.08;76.58;99844.67;221698;1235;60536;-73
2023/07/30 06:29:27;;;;;;;5.10;4.80;;;;;;;20.67;75.79;99848.30;221892;1234;72410;-73
2023/07/30 06:34:18;;;;;;;5.20;4.80;;;;;;;20.81;76.00;99845.30;221815;1234;60561;-73
2023/07/30 06:39:10;;;;;;;4.80;4.50;;;;;;;20.71;76.10;99847.29;221779;1235;60470;-73
2023/07/30 06:44:04;;;;;;;7.40;4.80;;;;;;;20.62;75.64;99849.02;221659;1232;72451;-73
2023/07/30 06:48:56;;;;;;;5.10;4.70;;;;;;;20.61;75.13;99853.25;221833;1232;60509;-73
2023/07/30 06:53:50;;;;;;;4.90;4.50;;;;;;;21.13;74.17;99850.89;221650;1232;60900;-73
2023/07/30 06:58:42;;;;;;;4.40;4.10;;;;;;;21.67;73.09;99846.23;221838;1235;60490;-73
2023/07/30 07:03:34;;;;;;;4.40;4.00;;;;;;;22.01;72.05;99849.36;221776;1234;60446;-73
2023/07/30 07:08:27;;;;;;;5.30;4.00;;;;;;;22.94;70.22;99847.93;221812;1232;60422;-73
2023/07/30 07:13:27;;;;;;;4.00;3.30;;;;;;;22.83;69.50;99848.09;221789;1232;67089;-73
2023/07/30 07:18:25;;;;;;;4.30;2.90;;;;;;;22.27;69.80;99851.04;221806;1233;60801;-73
2023/07/30 07:23:23;;;;;;;3.70;2.90;;;;;;;22.66;69.14;99846.09;221650;1232;73532;-73
2023/07/30 07:28:15;;;;;;;3.00;2.80;;;;;;;23.65;66.77;99857.56;221748;1235;71230;-73
2023/07/30 07:33:12;;;;;;;4.30;3.00;;;;;;;23.78;66.43;99856.21;221822;1232;60503;-73
2023/07/30 07:38:04;;;;;;;4.00;3.70;;;;;;;24.25;65.13;99853.06;221834;1234;65634;-73
2023/07/30 07:42:56;;;;;;;5.50;4.40;;;;;;;24.42;64.34;99856.58;221784;1235;60421;-73
2023/07/30 07:47:49;;;;;;;3.90;3.60;;;;;;;24.33;63.89;99862.17;221728;1232;60458;-74
2023/07/30 07:52:41;;;;;;;4.10;3.80;;;;;;;26.66;59.34;99859.32;221603;1232;61238;-74
2023/07/30 07:57:39;;;;;;;4.40;4.00;;;;;;;29.95;55.27;99840.69;221668;1235;61233;-74
2023/07/30 08:02:43;;;;;;;3.80;3.30;;;;;;;29.34;55.47;99853.55;221600;1235;73044;-73
2023/07/30 08:07:35;;;;;;;4.00;3.70;;;;;;;27.70;55.61;99862.50;221719;1232;61220;-74
2023/07/30 08:12:49;;;;;;;4.30;4.00;;;;;;;26.84;56.41;99859.59;221842;1235;61258;-73
2023/07/30 08:18:04;;;;;;;4.40;3.40;;;;;;;25.92;56.37;99858.70;221356;1236;61217;-73
2023/07/30 08:36:19;;;;;;;5.40;3.50;;;;;;;24.37;58.74;99865.17;219283;1248;61376;-74
2023/07/30 08:41:24;;;;;;;3.40;2.90;;;;;;;25.93;56.49;99856.48;219209;1248;64798;-73
2023/07/30 08:46:39;;;;;;;3.40;3.10;;;;;;;26.76;54.65;99870.98;219117;1248;61378;-73
2023/07/30 08:52:05;;;;;;;3.00;2.70;;;;;;;26.17;55.34;99878.34;219196;1248;74525;-73
2023/07/30 08:57:56;;;;;;;3.50;3.20;;;;;;;25.41;55.77;99883.36;217041;1254;71623;-73
2023/07/30 09:02:55;;;;;;;3.30;3.00;;;;;;;25.23;56.87;99887.05;217032;1254;61345;-74
2023/07/30 09:48:38;;;;;;;3.60;3.10;;;;;;;25.88;55.13;99895.15;215063;1265;61293;-74
2023/07/30 12:48:52;;;;;;;4.70;4.30;;;;;;;26.95;47.29;99839.34;218508;1251;71658;-74
2023/07/30 12:53:48;;;;;;;3.60;3.20;;;;;;;26.53;48.32;99835.12;218259;1251;61402;-73
2023/07/30 13:38:52;;;;;;;3.10;2.80;;;;;;;27.96;47.75;99831.39;214221;1269;61582;-73
2023/07/30 15:30:38;;;;;;;3.80;2.80;;;;;;;28.24;45.94;99778.64;215565;1265;71663;-73
2023/07/30 17:10:26;;;;;;;2.70;2.40;;;;;;;25.78;50.12;99806.11;219597;1238;61312;-74
2023/07/30 17:15:34;;;;;;;2.30;2.20;;;;;;;25.70;50.09;99815.83;220622;1238;67201;-74
2023/07/30 17:21:15;;;;;;;;;;;;;;;;;;;;;
2023/07/30 17:27:13;;;;;;;2.90;2.70;;;;;;;25.24;50.99;99826.33;219269;1244;75901;-74
2023/07/30 17:38:56;;;;;;;2.60;2.40;;;;;;;24.60;51.97;99830.11;220315;1240;61382;-74
2023/07/30 17:43:50;;;;;;;2.70;2.50;;;;;;;24.37;52.55;99830.11;220211;1244;61423;-74
2023/07/30 17:55:07;;;;;;;6.20;3.20;;;;;;;23.85;55.26;99830.90;220192;1244;72988;-74
2023/07/30 18:00:06;;;;;;;4.30;2.80;;;;;;;23.66;55.96;99832.03;219971;1241;72916;-73
2023/07/30 18:37:22;;;;;;;3.90;3.60;;;;;;;22.35;59.26;99835.66;220169;1241;61393;-74
2023/07/30 21:21:41;;;;;;;7.90;6.20;;;;;;;19.03;69.35;99882.42;215203;1260;61361;-73
2023/07/30 21:46:30;;;;;;;8.20;6.40;;;;;;;18.91;69.98;99886.11;216617;1254;71708;-74
2023/07/30 21:52:30;;;;;;;8.20;6.30;;;;;;;18.83;70.23;99892.84;219215;1241;60000;-73
2023/07/30 22:12:14;;;;;;;6.60;6.10;;;;;;;18.49;70.62;99874.17;220207;1241;73561;-73
2023/07/30 22:24:14;;;;;;;6.60;6.10;;;;;;;18.33;71.20;99863.39;217849;1251;61318;-73
